Terminal Aerodrome Forecast
Issued by NWS

Home | Current Version | Previous Version | Text Only | Print | Product List | Glossary On
Versions: 1 2 3 4 5 6 7 8 9 10 11 12 13 14 15 16 17 18 19 20 21 22 23 24 25 26
000
FTUS45 KGJT 301142
TAFVEL
TAF
KVEL 301142Z 3012/3112 VRB03KT P6SM VCSH OVC110
     FM302000 01010G20KT P6SM VCTS SCT080CB BKN120
     FM310200 01008KT P6SM SCT120 SCT250
     FM310600 31004KT P6SM FEW120=

USA.gov is the U.S. government's official web portal to all federal, state and local government web resources and services.